createdAt,value
2017-05-05T00:00:05.016Z,10.21
2017-05-05T00:00:49.350Z,10.15
2017-05-05T00:01:35.842Z,10.18
2017-05-05T00:02:18.857Z,10.09
2017-05-05T00:03:02.759Z,10
2017-05-05T00:03:48.831Z,10.06
2017-05-05T00:04:35.763Z,10.06
2017-05-05T00:05:16.187Z,10.03
2017-05-05T00:06:06.410Z,10.03
2017-05-05T00:06:48.391Z,10.07
2017-05-05T00:09:11.066Z,10.05
2017-05-05T00:09:59.391Z,10.02
2017-05-05T00:10:47.975Z,10.06
2017-05-05T00:11:36.633Z,10.07
2017-05-05T00:12:23.969Z,10.1
2017-05-05T00:13:10.374Z,10.07
2017-05-05T00:13:52.409Z,10.1
2017-05-05T00:14:37.363Z,10.06
2017-05-05T00:15:18.430Z,10
2017-05-05T00:15:58.841Z,10.02
2017-05-05T00:16:39.993Z,10.06
2017-05-05T00:17:23.109Z,10.06
2017-05-05T00:18:05.027Z,10.09
2017-05-05T00:18:45.443Z,10.05
2017-05-05T00:19:25.835Z,10
2017-05-05T00:20:06.215Z,10.1
2017-05-05T00:20:46.634Z,10.07
2017-05-05T00:21:27.024Z,10.15
2017-05-05T00:22:08.998Z,10.03
2017-05-05T00:22:50.009Z,10.13
2017-05-05T00:23:30.956Z,10.13
2017-05-05T00:24:11.348Z,10.12
2017-05-05T00:24:51.747Z,10.17
2017-05-05T00:27:20.823Z,10.17
2017-05-05T00:28:08.037Z,10.2
2017-05-05T00:28:56.432Z,10.15
2017-05-05T00:29:44.762Z,10.1
2017-05-05T00:30:33.254Z,10.18
2017-05-05T00:31:20.426Z,10.21
2017-05-05T00:32:01.544Z,10.17
2017-05-05T00:32:42.034Z,10.15
2017-05-05T00:33:23.256Z,10.17
2017-05-05T00:34:03.684Z,10.17
2017-05-05T00:34:44.107Z,10.13
2017-05-05T00:35:24.483Z,10.15
2017-05-05T00:36:04.900Z,10.15
2017-05-05T00:36:45.972Z,10.15
2017-05-05T00:44:12.113Z,10.15
2017-05-05T01:10:57.517Z,9.9
2017-05-05T01:11:43.516Z,9.94
2017-05-05T01:12:31.854Z,9.9
2017-05-05T01:13:20.458Z,9.9
2017-05-05T01:14:09.391Z,9.87
2017-05-05T01:14:57.564Z,9.84
2017-05-05T01:15:46.344Z,9.82
2017-05-05T01:16:34.875Z,9.8
2017-05-05T01:17:23.445Z,9.84
2017-05-05T01:18:12.469Z,9.81
2017-05-05T01:19:01.240Z,9.87
2017-05-05T01:19:49.769Z,9.84
2017-05-05T01:20:37.880Z,9.85
2017-05-05T01:21:26.474Z,9.87
2017-05-05T01:22:15.443Z,9.85
2017-05-05T01:23:04.080Z,9.74
2017-05-05T01:23:52.642Z,9.88
2017-05-05T01:25:45.423Z,9.91
2017-05-05T01:26:32.657Z,9.91
2017-05-05T01:27:21.553Z,9.9
2017-05-05T01:28:09.885Z,9.84
2017-05-05T01:28:58.353Z,9.82
2017-05-05T01:31:52.991Z,9.92
2017-05-05T01:32:42.317Z,9.91
2017-05-05T01:33:30.384Z,9.97
2017-05-05T01:34:19.342Z,9.87
2017-05-05T01:35:07.208Z,9.87
2017-05-05T01:37:05.693Z,9.92
2017-05-05T01:37:54.006Z,9.88
2017-05-05T01:38:42.400Z,9.92
2017-05-05T01:39:31.039Z,9.87
2017-05-05T01:41:54.387Z,9.87
2017-05-05T01:43:46.063Z,9.84
2017-05-05T01:44:34.533Z,9.85
2017-05-05T01:46:25.678Z,9.85
2017-05-05T01:48:16.766Z,9.87
2017-05-05T01:51:20.787Z,9.72
2017-05-05T01:53:49.642Z,9.76
2017-05-05T01:54:38.622Z,9.8
2017-05-05T01:55:27.157Z,9.84
2017-05-05T01:56:15.574Z,9.8
2017-05-05T01:57:04.305Z,9.82
2017-05-05T01:57:52.973Z,9.8
2017-05-05T01:58:41.278Z,9.85
2017-05-05T01:59:30.529Z,9.82
2017-05-05T02:00:19.513Z,9.82
2017-05-05T02:01:08.116Z,9.88
2017-05-05T02:01:56.559Z,9.85
2017-05-05T02:02:45.055Z,9.88
2017-05-05T02:03:33.632Z,9.82
2017-05-05T02:04:22.160Z,9.82
2017-05-05T02:05:10.782Z,9.9
2017-05-05T02:05:59.410Z,9.85
2017-05-05T02:06:48.087Z,9.85
2017-05-05T02:07:36.505Z,9.87
2017-05-05T02:08:25.216Z,9.85
2017-05-05T02:09:13.763Z,9.9
2017-05-05T02:10:02.283Z,9.82
2017-05-05T02:10:51.250Z,9.88
2017-05-05T02:11:39.309Z,9.87
2017-05-05T02:17:20.157Z,9.88
2017-05-05T02:19:12.547Z,9.82
2017-05-05T02:19:59.679Z,9.81
2017-05-05T02:20:48.331Z,9.76
2017-05-05T02:21:36.888Z,9.74
2017-05-05T02:22:25.341Z,9.87
2017-05-05T02:23:14.518Z,9.8
2017-05-05T02:24:02.689Z,9.85
2017-05-05T02:24:51.268Z,9.82
2017-05-05T02:25:40.313Z,9.8
2017-05-05T02:29:11.990Z,9.82
2017-05-05T02:29:58.565Z,9.87
2017-05-05T02:31:03.575Z,9.82
2017-05-05T02:31:51.754Z,9.8
2017-05-05T02:32:40.506Z,9.8
2017-05-05T02:33:29.150Z,9.84
2017-05-05T02:34:17.975Z,9.77
2017-05-05T02:35:06.166Z,9.82
2017-05-05T02:35:55.000Z,9.81
2017-05-05T02:36:43.407Z,9.82
2017-05-05T02:37:31.961Z,9.82
2017-05-05T02:38:20.521Z,9.8
2017-05-05T02:39:09.164Z,9.81
2017-05-05T02:39:57.512Z,9.76
2017-05-05T02:40:46.208Z,9.8
2017-05-05T02:41:34.763Z,9.77
2017-05-05T02:42:23.424Z,9.76
2017-05-05T02:43:12.017Z,9.76
2017-05-05T02:44:00.799Z,9.73
2017-05-05T02:44:49.079Z,9.7
2017-05-05T02:45:37.679Z,9.74
2017-05-05T02:46:26.492Z,9.7
2017-05-05T02:47:14.773Z,9.66
2017-05-05T02:47:57.583Z,9.62
2017-05-05T02:48:37.974Z,9.63
2017-05-05T02:49:19.050Z,9.59
2017-05-05T02:49:59.463Z,9.63
2017-05-05T02:50:39.868Z,9.63
2017-05-05T02:51:20.261Z,9.64
2017-05-05T02:52:01.517Z,9.62
2017-05-05T02:52:42.853Z,9.59
2017-05-05T02:53:23.296Z,9.59
2017-05-05T02:54:03.683Z,9.63
2017-05-05T02:54:44.094Z,9.69
2017-05-05T02:55:25.434Z,9.67
2017-05-05T02:56:06.581Z,9.63
2017-05-05T02:56:47.529Z,9.58
2017-05-05T02:57:27.958Z,9.66
2017-05-05T02:58:08.341Z,9.62
2017-05-05T02:58:50.357Z,9.55
2017-05-05T02:59:30.772Z,9.58
2017-05-05T03:00:12.022Z,9.56
2017-05-05T03:00:52.434Z,9.59
2017-05-05T03:01:33.681Z,9.58
2017-05-05T03:02:14.131Z,9.59
2017-05-05T03:02:54.540Z,9.54
2017-05-05T03:03:34.952Z,9.56
2017-05-05T03:04:15.353Z,9.52
2017-05-05T03:04:55.752Z,9.59
2017-05-05T03:05:37.046Z,9.56
2017-05-05T03:06:19.017Z,9.52
2017-05-05T03:06:59.425Z,9.55
2017-05-05T03:07:59.439Z,9.62
2017-05-05T03:08:41.598Z,9.49
2017-05-05T03:09:22.846Z,9.54
2017-05-05T03:10:04.878Z,9.55
2017-05-05T03:10:45.274Z,9.54
2017-05-05T03:11:25.707Z,9.52
2017-05-05T03:12:08.360Z,9.59
2017-05-05T03:12:49.698Z,9.55
2017-05-05T03:13:30.121Z,9.54
2017-05-05T03:14:11.451Z,9.51
2017-05-05T03:14:52.459Z,9.58
2017-05-05T03:15:37.372Z,9.55
2017-05-05T03:16:20.374Z,9.66
2017-05-05T03:17:00.758Z,9.62
2017-05-05T03:17:41.162Z,9.54
2017-05-05T03:18:21.626Z,9.56
2017-05-05T03:19:02.859Z,9.56
2017-05-05T03:19:46.072Z,9.56
2017-05-05T03:20:27.125Z,9.54
2017-05-05T03:21:08.187Z,9.58
2017-05-05T03:21:49.391Z,9.55
2017-05-05T03:22:29.783Z,9.59
2017-05-05T03:23:10.203Z,9.64
2017-05-05T03:23:50.593Z,9.56
2017-05-05T03:24:34.915Z,9.64
2017-05-05T03:26:15.054Z,9.59
2017-05-05T03:27:02.824Z,9.64
2017-05-05T03:27:51.628Z,9.64
2017-05-05T03:28:39.767Z,9.56
2017-05-05T03:29:28.489Z,9.66
2017-05-05T03:30:17.377Z,9.59
2017-05-05T03:31:05.533Z,9.62
2017-05-05T03:31:54.062Z,9.62
2017-05-05T03:32:42.509Z,9.59
2017-05-05T03:33:30.800Z,9.55
2017-05-05T03:34:19.731Z,9.59
2017-05-05T03:35:07.842Z,9.59
2017-05-05T03:35:53.606Z,9.59
2017-05-05T03:36:35.541Z,9.63
2017-05-05T03:37:17.468Z,9.59
2017-05-05T03:37:57.851Z,9.56
2017-05-05T03:38:38.316Z,9.67
2017-05-05T03:39:19.560Z,9.55
2017-05-05T03:40:00.547Z,9.59
2017-05-05T03:40:40.926Z,9.55
2017-05-05T03:41:22.051Z,9.62
2017-05-05T03:42:03.944Z,9.54
2017-05-05T03:42:45.140Z,9.59
2017-05-05T03:43:25.993Z,9.54
2017-05-05T03:44:06.950Z,9.59
2017-05-05T03:44:49.887Z,9.59
2017-05-05T03:48:41.839Z,9.58
2017-05-05T03:49:42.408Z,9.52
2017-05-05T03:50:22.851Z,9.56
2017-05-05T03:51:03.300Z,9.52
2017-05-05T03:51:43.747Z,9.54
2017-05-05T03:52:24.213Z,9.69
2017-05-05T03:53:06.526Z,9.64
2017-05-05T03:53:49.757Z,9.55
2017-05-05T03:54:30.162Z,9.63
2017-05-05T03:55:14.239Z,9.62
2017-05-05T03:55:57.471Z,9.63
2017-05-05T03:58:18.198Z,9.63
2017-05-05T03:58:59.890Z,9.63
2017-05-05T03:59:43.927Z,9.69
2017-05-05T04:02:05.046Z,9.67
2017-05-05T04:02:49.869Z,9.67
2017-05-05T04:03:31.916Z,9.63
2017-05-05T04:04:14.000Z,9.67
2017-05-05T04:04:54.444Z,9.66
2017-05-05T04:05:34.809Z,9.64
2017-05-05T04:06:15.215Z,9.69
2017-05-05T04:06:55.580Z,9.7
2017-05-05T04:07:36.498Z,9.67
2017-05-05T04:08:18.702Z,9.7
2017-05-05T04:09:00.584Z,9.63
2017-05-05T04:09:41.505Z,9.59
2017-05-05T04:10:22.696Z,9.72
2017-05-05T04:11:05.494Z,9.62
2017-05-05T04:11:45.920Z,9.69
2017-05-05T04:15:09.674Z,9.64
2017-05-05T04:15:53.272Z,9.63
2017-05-05T04:16:36.290Z,9.69
2017-05-05T04:19:13.266Z,9.66
2017-05-05T04:22:34.344Z,9.66
2017-05-05T04:23:16.619Z,9.67
2017-05-05T04:23:57.022Z,9.66
2017-05-05T04:24:38.314Z,9.64
2017-05-05T04:25:18.676Z,9.66
2017-05-05T04:25:59.633Z,9.7
2017-05-05T04:26:40.799Z,9.64
2017-05-05T04:27:21.779Z,9.64
2017-05-05T04:28:02.144Z,9.58
2017-05-05T04:28:44.361Z,9.64
2017-05-05T04:39:39.238Z,9.62
2017-05-05T04:40:21.489Z,9.59
2017-05-05T04:41:01.860Z,9.62
2017-05-05T04:56:39.596Z,9.82
2017-05-05T04:57:21.608Z,9.76
2017-05-05T04:58:02.747Z,9.81
2017-05-05T04:58:44.092Z,9.81
2017-05-05T05:08:03.790Z,10
2017-05-05T05:13:16.574Z,10.34
2017-05-05T05:13:58.184Z,10.34
2017-05-05T05:14:40.047Z,10.27
2017-05-05T05:15:20.548Z,10.33
2017-05-05T05:16:03.814Z,10.43
2017-05-05T05:16:44.240Z,10.42
2017-05-05T05:17:26.299Z,10.43
2017-05-05T05:18:08.345Z,10.43
2017-05-05T05:18:49.556Z,10.46
2017-05-05T05:19:29.949Z,10.49
2017-05-05T05:20:10.375Z,10.43
2017-05-05T05:20:51.403Z,10.42
2017-05-05T05:23:16.306Z,10.49
2017-05-05T05:25:19.162Z,10.43
2017-05-05T05:26:01.358Z,10.48
2017-05-05T05:28:02.816Z,10.46
2017-05-05T05:28:43.043Z,10.46
2017-05-05T05:29:24.231Z,10.43
2017-05-05T05:30:06.004Z,10.49
2017-05-05T05:30:48.104Z,10.48
2017-05-05T05:31:35.964Z,10.45
2017-05-05T05:32:17.998Z,10.51
2017-05-05T05:33:02.010Z,10.51
2017-05-05T05:33:43.171Z,10.46
2017-05-05T05:34:28.013Z,10.42
2017-05-05T05:35:11.633Z,10.49
2017-05-05T05:35:52.033Z,10.61
2017-05-05T05:36:34.292Z,10.48
2017-05-05T05:37:15.490Z,10.55
2017-05-05T05:37:57.555Z,10.59
2017-05-05T05:38:55.029Z,10.61
2017-05-05T05:39:36.080Z,10.59
2017-05-05T05:48:45.139Z,10.72
2017-05-05T05:49:30.734Z,10.69
2017-05-05T05:50:12.217Z,10.77
2017-05-05T05:52:06.292Z,10.75
2017-05-05T05:52:50.427Z,10.8
2017-05-05T05:53:30.838Z,10.92
2017-05-05T05:54:12.601Z,10.89
2017-05-05T05:54:53.666Z,10.97
2017-05-05T05:55:40.565Z,10.94
2017-05-05T05:56:24.657Z,11.1
2017-05-05T06:05:02.349Z,11.6
2017-05-05T06:05:45.241Z,11.65
2017-05-05T06:06:27.245Z,11.67
2017-05-05T06:07:10.289Z,11.6
2017-05-05T06:09:23.565Z,11.63
2017-05-05T06:10:07.218Z,11.58
2017-05-05T06:10:49.163Z,11.52
2017-05-05T06:11:31.488Z,11.56
2017-05-05T06:12:11.916Z,11.63
2017-05-05T06:12:52.873Z,11.51
2017-05-05T06:13:34.154Z,11.59
2017-05-05T06:14:18.168Z,11.49
2017-05-05T06:14:58.555Z,11.49
2017-05-05T06:15:39.140Z,11.49
2017-05-05T06:16:19.576Z,11.45
2017-05-05T06:17:00.696Z,11.41
2017-05-05T06:17:41.385Z,11.41
2017-05-05T06:18:23.318Z,11.45
2017-05-05T06:19:04.253Z,11.52
2017-05-05T06:19:47.236Z,11.52
2017-05-05T06:20:29.161Z,11.53
2017-05-05T06:21:10.325Z,11.55
2017-05-05T06:21:50.696Z,11.52
2017-05-05T06:22:31.680Z,11.49
2017-05-05T06:23:12.061Z,11.6
2017-05-05T06:23:54.125Z,11.52
2017-05-05T06:24:35.302Z,11.58
2017-05-05T06:25:15.705Z,11.6
2017-05-05T06:25:56.122Z,11.6
2017-05-05T06:26:37.239Z,11.67
2017-05-05T06:27:17.669Z,11.59
2017-05-05T06:27:58.717Z,11.67
2017-05-05T06:28:39.172Z,11.73
2017-05-05T06:29:19.576Z,11.71
2017-05-05T06:30:00.631Z,11.74
2017-05-05T06:30:41.650Z,11.76
2017-05-05T06:31:22.074Z,11.74
2017-05-05T06:32:02.447Z,11.71
2017-05-05T06:32:43.061Z,11.73
2017-05-05T06:33:24.333Z,11.68
2017-05-05T06:34:04.746Z,11.62
2017-05-05T06:34:45.248Z,11.7
2017-05-05T06:35:27.165Z,11.6
2017-05-05T06:36:09.411Z,11.63
2017-05-05T06:36:50.059Z,11.65
2017-05-05T06:37:33.248Z,11.67
2017-05-05T06:38:16.220Z,11.67
2017-05-05T06:39:01.570Z,11.73
2017-05-05T06:39:42.824Z,11.73
2017-05-05T06:40:23.241Z,11.7
2017-05-05T06:41:04.348Z,11.74
2017-05-05T06:41:45.312Z,11.73
2017-05-05T06:42:27.158Z,11.73
2017-05-05T06:43:07.570Z,11.73
2017-05-05T06:43:47.970Z,11.7
2017-05-05T06:44:28.397Z,11.8
2017-05-05T06:45:10.134Z,11.86
2017-05-05T06:45:52.167Z,11.88
2017-05-05T06:46:33.342Z,11.97
2017-05-05T06:47:15.237Z,12.02
2017-05-05T06:49:06.093Z,12.08
2017-05-05T06:49:51.205Z,12.12
2017-05-05T06:52:06.045Z,12.28
2017-05-05T06:52:51.054Z,12.3
2017-05-05T06:53:30.757Z,12.26
2017-05-05T06:54:13.760Z,12.25
2017-05-05T06:54:57.745Z,12.3
2017-05-05T06:55:38.753Z,12.37
2017-05-05T06:56:23.669Z,12.39
2017-05-05T06:57:05.701Z,12.35
2017-05-05T06:57:46.063Z,12.36
2017-05-05T06:58:27.003Z,12.32
2017-05-05T06:59:08.301Z,12.32
2017-05-05T06:59:50.346Z,12.21
2017-05-05T07:00:32.211Z,12.26
2017-05-05T07:01:16.279Z,12.26
2017-05-05T07:01:56.756Z,12.17
2017-05-05T07:02:38.713Z,12.18
2017-05-05T07:03:19.953Z,12.18
2017-05-05T07:04:01.221Z,12.21
2017-05-05T07:04:43.236Z,12.26
2017-05-05T07:05:23.710Z,12.21
2017-05-05T07:06:04.160Z,12.21
2017-05-05T07:06:44.545Z,12.21
2017-05-05T07:07:24.954Z,12.23
2017-05-05T07:08:05.344Z,12.36
2017-05-05T07:08:45.755Z,12.44
2017-05-05T07:09:27.794Z,12.39
2017-05-05T07:10:08.812Z,12.4
2017-05-05T07:10:49.878Z,12.48
2017-05-05T07:11:30.955Z,12.45
2017-05-05T07:12:11.866Z,12.48
2017-05-05T07:12:52.738Z,12.57
2017-05-05T07:16:45.104Z,12.72
2017-05-05T07:53:08.146Z,14.04
2017-05-05T07:55:12.555Z,14.16
2017-05-05T07:55:59.317Z,14.18
2017-05-05T07:56:42.780Z,14.18
2017-05-05T07:57:23.154Z,14.25
2017-05-05T07:58:03.638Z,14.3
2017-05-05T07:58:45.376Z,14.31
2017-05-05T07:59:26.531Z,14.41
2017-05-05T08:00:09.682Z,14.41
2017-05-05T08:00:50.209Z,14.49
2017-05-05T08:01:30.572Z,14.58
2017-05-05T08:02:11.847Z,14.63
2017-05-05T08:02:56.767Z,14.68
2017-05-05T08:03:43.735Z,14.74
2017-05-05T08:04:24.150Z,14.77
2017-05-05T08:05:04.499Z,14.82
2017-05-05T08:05:46.714Z,14.9
2017-05-05T08:06:32.757Z,15.05
2017-05-05T08:07:13.122Z,15.07
2017-05-05T08:07:55.229Z,15.22
2017-05-05T08:08:36.330Z,15.33
2017-05-05T08:09:18.433Z,15.41
2017-05-05T08:09:58.803Z,15.44
2017-05-05T08:10:39.223Z,15.47
2017-05-05T08:11:20.213Z,15.47
2017-05-05T08:12:00.626Z,15.52
2017-05-05T08:12:41.078Z,15.54
2017-05-05T08:13:21.427Z,15.59
2017-05-05T08:14:01.839Z,15.6
2017-05-05T08:14:43.944Z,15.62
2017-05-05T08:18:45.980Z,15.91
2017-05-05T08:19:33.621Z,16.03
2017-05-05T08:20:15.850Z,16.06
2017-05-05T08:20:56.356Z,16.16
2017-05-05T08:21:38.288Z,16.21
2017-05-05T08:22:18.736Z,16.28
2017-05-05T08:22:59.661Z,16.31
2017-05-05T08:23:40.080Z,16.28
2017-05-05T08:24:23.167Z,16.26
2017-05-05T08:25:04.520Z,16.17
2017-05-05T08:26:57.848Z,16.21
2017-05-05T08:36:23.083Z,15.99
2017-05-05T08:37:08.701Z,15.84
2017-05-05T08:37:49.880Z,15.9
2017-05-05T08:38:33.885Z,15.83
2017-05-05T08:39:16.712Z,15.75
2017-05-05T08:40:00.735Z,15.75
2017-05-05T08:40:42.742Z,15.7
2017-05-05T08:44:32.517Z,15.87
2017-05-05T08:45:17.220Z,15.91
2017-05-05T08:47:28.346Z,16
2017-05-05T08:48:12.646Z,16.16
2017-05-05T08:48:56.847Z,16.18
2017-05-05T08:51:36.081Z,16.47
2017-05-05T09:02:56.546Z,17.56
2017-05-05T09:03:39.598Z,17.59
2017-05-05T09:04:20.007Z,17.66
2017-05-05T09:05:00.409Z,17.76
2017-05-05T09:19:12.439Z,17.73
2017-05-05T09:19:58.780Z,17.79
2017-05-05T09:20:39.667Z,17.75
2017-05-05T09:21:20.942Z,17.76
2017-05-05T09:23:09.990Z,17.9
2017-05-05T09:23:55.763Z,18.03
2017-05-05T09:30:01.968Z,18.49
2017-05-05T09:30:48.924Z,18.45
2017-05-05T09:31:29.373Z,18.36
2017-05-05T09:33:32.742Z,18.37
2017-05-05T09:38:06.673Z,18.24
2017-05-05T09:38:51.510Z,18.06
2017-05-05T09:46:53.883Z,18.05
2017-05-05T09:47:38.878Z,18.02
2017-05-05T09:51:16.681Z,17.93
2017-05-05T09:51:57.897Z,17.93
2017-05-05T09:52:39.037Z,17.95
2017-05-05T09:53:19.951Z,17.95
2017-05-05T09:54:01.979Z,17.95
2017-05-05T09:54:42.418Z,18.08
2017-05-05T09:55:22.778Z,18.11
2017-05-05T09:56:03.209Z,18.19
2017-05-05T09:56:43.586Z,18.28
2017-05-05T09:57:24.005Z,18.31
2017-05-05T09:58:04.388Z,18.3
2017-05-05T09:58:46.354Z,18.34
2017-05-05T09:59:27.541Z,18.31
2017-05-05T10:00:08.504Z,18.28
2017-05-05T10:00:49.859Z,18.23
2017-05-05T10:03:05.033Z,18.09
2017-05-05T10:03:46.509Z,18.09
2017-05-05T10:04:29.031Z,18.09
2017-05-05T10:05:10.287Z,18.08
2017-05-05T10:05:50.708Z,18.21
2017-05-05T10:06:31.104Z,18.23
2017-05-05T10:07:11.526Z,18.31
2017-05-05T10:07:52.538Z,18.41
2017-05-05T10:08:32.951Z,18.48
2017-05-05T10:09:13.425Z,18.55
2017-05-05T10:09:54.767Z,18.6
2017-05-05T10:10:35.161Z,18.64
2017-05-05T10:11:15.600Z,18.74
2017-05-05T10:11:55.994Z,18.79
2017-05-05T10:12:37.110Z,18.71
2017-05-05T10:13:17.499Z,18.79
2017-05-05T10:13:58.636Z,18.76
2017-05-05T10:14:40.556Z,18.85
2017-05-05T10:15:21.700Z,18.92
2017-05-05T10:16:02.098Z,18.92
2017-05-05T10:16:42.490Z,19.05
2017-05-05T10:17:22.917Z,19.01
2017-05-05T10:18:04.314Z,18.98
2017-05-05T10:18:45.442Z,18.92
2017-05-05T10:19:25.849Z,18.81
2017-05-05T10:20:06.324Z,18.7
2017-05-05T10:20:46.716Z,18.68
2017-05-05T10:21:27.142Z,18.74
2017-05-05T10:22:07.508Z,18.61
2017-05-05T10:22:48.588Z,18.67
2017-05-05T10:23:29.574Z,18.58
2017-05-05T10:24:12.567Z,18.71
2017-05-05T10:24:52.968Z,18.71
2017-05-05T10:25:33.386Z,18.7
2017-05-05T10:26:14.289Z,18.7
2017-05-05T10:26:54.667Z,18.7
2017-05-05T10:27:37.731Z,18.74
2017-05-05T10:28:20.481Z,18.85
2017-05-05T10:29:01.723Z,18.7
2017-05-05T10:29:44.083Z,18.7
2017-05-05T10:30:24.539Z,18.74
2017-05-05T10:31:05.735Z,18.71
2017-05-05T10:31:46.167Z,18.71
2017-05-05T10:32:26.624Z,18.68
2017-05-05T10:33:07.793Z,18.74
2017-05-05T10:33:48.549Z,18.85
2017-05-05T10:34:28.948Z,19
2017-05-05T10:35:09.352Z,19.04
2017-05-05T10:35:50.574Z,19.09
2017-05-05T10:36:30.978Z,19.24
2017-05-05T10:37:11.385Z,19.35
2017-05-05T10:37:52.498Z,19.35
2017-05-05T10:38:32.894Z,19.42
2017-05-05T10:39:13.315Z,19.47
2017-05-05T10:39:53.690Z,19.49
2017-05-05T10:40:35.574Z,19.57
2017-05-05T10:41:17.516Z,19.57
2017-05-05T10:41:58.833Z,19.57
2017-05-05T10:42:39.997Z,19.67
2017-05-05T10:43:22.147Z,19.62
2017-05-05T10:44:06.258Z,19.67
2017-05-05T10:44:46.593Z,19.6
2017-05-05T10:45:27.097Z,19.55
2017-05-05T10:46:08.178Z,19.49
2017-05-05T10:46:50.002Z,19.41
2017-05-05T10:47:30.421Z,19.53
2017-05-05T10:48:11.563Z,19.55
2017-05-05T10:48:52.673Z,19.57
2017-05-05T10:49:33.088Z,19.64
2017-05-05T10:50:14.030Z,19.92
2017-05-05T10:50:55.245Z,19.94
2017-05-05T10:51:36.997Z,20.02
2017-05-05T10:52:23.002Z,20.21
2017-05-05T10:53:04.977Z,20.18
2017-05-05T10:53:51.086Z,20.15
2017-05-05T10:54:33.498Z,20.18
2017-05-05T10:55:16.480Z,20.12
2017-05-05T10:55:56.940Z,20.1
2017-05-05T10:56:38.237Z,20
2017-05-05T10:57:19.229Z,20.07
2017-05-05T10:57:59.663Z,20.11
2017-05-05T10:58:40.675Z,20.24
2017-05-05T10:59:23.699Z,20.37
2017-05-05T11:00:04.117Z,20.46
2017-05-05T11:00:45.271Z,20.56
2017-05-05T11:01:26.490Z,20.71
2017-05-05T11:02:07.735Z,20.75
2017-05-05T11:02:48.164Z,20.82
2017-05-05T11:03:29.273Z,21.03
2017-05-05T11:04:09.735Z,21.05
2017-05-05T11:04:50.718Z,21.08
2017-05-05T11:05:31.513Z,21.08
2017-05-05T11:06:11.821Z,20.98
2017-05-05T11:06:54.603Z,20.89
2017-05-05T11:07:37.511Z,20.88
2017-05-05T11:08:18.860Z,20.88
2017-05-05T11:09:00.108Z,20.9
2017-05-05T11:09:43.278Z,21
2017-05-05T11:10:23.769Z,21.05
2017-05-05T11:11:04.160Z,21.2
2017-05-05T11:11:45.005Z,21.19
2017-05-05T11:13:59.992Z,21.51
2017-05-05T11:14:42.591Z,21.72
2017-05-05T11:15:23.376Z,21.72
2017-05-05T11:16:03.871Z,21.69
2017-05-05T11:16:46.074Z,21.75
2017-05-05T11:17:26.889Z,21.8
2017-05-05T11:18:10.770Z,21.72
2017-05-05T11:18:51.051Z,21.51
2017-05-05T11:19:33.291Z,21.5
2017-05-05T11:20:13.706Z,21.41
2017-05-05T11:22:03.961Z,21.51
2017-05-05T11:22:48.595Z,21.5
2017-05-05T11:24:27.046Z,21.51
2017-05-05T11:25:11.113Z,21.5
2017-05-05T11:25:52.586Z,21.47
2017-05-05T11:26:32.933Z,21.38
2017-05-05T11:27:17.023Z,21.26
2017-05-05T11:27:58.338Z,21.44
2017-05-05T11:28:39.911Z,21.48
2017-05-05T11:29:22.906Z,21.54
2017-05-05T11:30:04.311Z,21.54
2017-05-05T11:30:45.359Z,21.65
2017-05-05T11:31:25.576Z,21.74
2017-05-05T11:32:06.965Z,21.78
2017-05-05T11:32:47.820Z,21.81
2017-05-05T11:33:29.882Z,21.89
2017-05-05T11:34:10.298Z,21.81
2017-05-05T11:34:51.075Z,21.8
2017-05-05T11:35:32.211Z,21.77
2017-05-05T11:36:13.135Z,21.74
2017-05-05T11:36:55.839Z,21.81
2017-05-05T11:37:36.720Z,21.75
2017-05-05T11:38:18.018Z,21.7
2017-05-05T11:38:58.732Z,21.75
2017-05-05T11:39:39.336Z,21.85
2017-05-05T11:40:23.470Z,21.94
2017-05-05T11:41:04.076Z,22.07
2017-05-05T11:41:44.538Z,22.21
2017-05-05T11:42:24.962Z,22.25
2017-05-05T11:43:05.936Z,22.23
2017-05-05T11:43:46.249Z,22.43
2017-05-05T11:44:28.252Z,22.38
2017-05-05T11:45:10.870Z,22.52
2017-05-05T11:45:51.242Z,22.46
2017-05-05T11:46:37.424Z,22.49
2017-05-05T11:47:29.819Z,22.46
2017-05-05T11:48:12.311Z,22.49
2017-05-05T11:48:53.665Z,22.61
2017-05-05T11:49:35.237Z,22.47
2017-05-05T11:50:21.353Z,22.51
2017-05-05T11:51:03.111Z,22.46
2017-05-05T11:51:44.354Z,22.38
2017-05-05T11:52:25.119Z,22.4
2017-05-05T11:53:05.541Z,22.55
2017-05-05T11:53:48.065Z,22.52
2017-05-05T11:54:28.866Z,22.51
2017-05-05T11:55:09.885Z,22.47
2017-05-05T11:55:51.841Z,22.47
2017-05-05T11:56:32.299Z,22.4
2017-05-05T11:57:12.955Z,22.31
2017-05-05T11:57:55.000Z,22.37
2017-05-05T11:58:36.472Z,22.4
2017-05-05T11:59:17.503Z,22.43
2017-05-05T11:59:58.619Z,22.4
2017-05-05T12:00:39.026Z,22.37
2017-05-05T12:01:20.419Z,22.28
2017-05-05T12:02:02.414Z,22.25
2017-05-05T12:02:44.586Z,22.21
2017-05-05T12:03:27.499Z,22.16
2017-05-05T12:04:09.414Z,22.03
2017-05-05T12:04:50.912Z,21.89
2017-05-05T12:05:31.334Z,21.88
2017-05-05T12:06:12.653Z,21.88
2017-05-05T12:06:53.108Z,21.92
2017-05-05T12:07:33.482Z,21.89
2017-05-05T12:08:13.890Z,22.03
2017-05-05T12:08:54.917Z,22.1
2017-05-05T12:12:31.436Z,22.51
2017-05-05T12:13:14.868Z,22.58
2017-05-05T12:13:55.872Z,22.61
2017-05-05T12:14:37.586Z,22.7
2017-05-05T12:15:18.029Z,22.77
2017-05-05T12:15:59.392Z,22.84
2017-05-05T12:16:40.619Z,22.83
2017-05-05T12:17:22.810Z,22.96
2017-05-05T12:18:03.195Z,22.96
2017-05-05T12:18:47.155Z,23.06
2017-05-05T12:19:27.591Z,23.06
2017-05-05T12:20:07.960Z,23.01
2017-05-05T12:20:49.738Z,22.95
2017-05-05T12:21:31.649Z,22.95
2017-05-05T12:22:12.064Z,22.98
2017-05-05T12:29:36.310Z,22.4
2017-05-05T12:30:18.653Z,22.23
2017-05-05T12:30:59.094Z,22.22
2017-05-05T12:40:24.438Z,22.18
2017-05-05T12:42:31.193Z,22.28
2017-05-05T12:45:03.273Z,22.23
2017-05-05T12:45:50.207Z,22.15
2017-05-05T12:46:34.607Z,22.08
2017-05-05T12:47:18.901Z,21.97
2017-05-05T12:47:59.939Z,21.85
2017-05-05T12:48:42.249Z,21.81
2017-05-05T12:49:23.273Z,21.8
2017-05-05T12:50:06.088Z,21.68
2017-05-05T12:50:47.038Z,21.74
2017-05-05T12:51:41.636Z,21.48
2017-05-05T12:52:23.111Z,21.47
2017-05-05T12:53:03.514Z,21.45
2017-05-05T12:53:44.630Z,21.48
2017-05-05T12:54:24.934Z,21.45
2017-05-05T12:55:07.216Z,21.33
2017-05-05T12:55:54.544Z,21.5
2017-05-05T12:56:34.993Z,21.53
2017-05-05T12:57:19.693Z,21.53
2017-05-05T12:58:00.764Z,21.59
2017-05-05T12:58:42.028Z,21.62
2017-05-05T12:59:24.714Z,21.75
2017-05-05T13:00:10.079Z,21.8
2017-05-05T13:00:52.197Z,21.89
2017-05-05T13:01:34.533Z,22.04
2017-05-05T13:02:16.482Z,22.08
2017-05-05T13:02:58.644Z,22.18
2017-05-05T13:03:40.180Z,22.23
2017-05-05T13:04:21.430Z,22.38
2017-05-05T13:05:04.655Z,22.51
2017-05-05T13:05:48.814Z,22.67
2017-05-05T13:06:29.280Z,22.73
2017-05-05T13:07:10.560Z,22.76
2017-05-05T13:07:51.263Z,22.71
2017-05-05T13:10:08.548Z,22.52
2017-05-05T13:10:53.233Z,22.49
2017-05-05T13:11:37.298Z,22.44
2017-05-05T13:14:11.021Z,22.31
2017-05-05T13:14:52.705Z,22.19
2017-05-05T13:15:33.142Z,22.14
2017-05-05T13:16:13.528Z,22.21
2017-05-05T13:16:55.440Z,22.3
2017-05-05T13:17:37.360Z,22.38
2017-05-05T13:18:17.764Z,22.41
2017-05-05T13:18:59.770Z,22.55
2017-05-05T13:19:41.749Z,22.58
2017-05-05T13:20:23.076Z,22.74
2017-05-05T13:21:03.525Z,22.77
2017-05-05T13:21:44.763Z,22.95
2017-05-05T13:22:26.071Z,22.99
2017-05-05T13:23:07.353Z,23.02
2017-05-05T13:23:47.750Z,23.13
2017-05-05T13:24:28.162Z,23.07
2017-05-05T13:25:09.537Z,23.25
2017-05-05T13:25:49.961Z,23.26
2017-05-05T13:26:31.106Z,23.29
2017-05-05T13:27:11.556Z,23.36
2017-05-05T13:27:51.938Z,23.42
2017-05-05T13:28:32.361Z,23.49
2017-05-05T13:29:14.362Z,23.51
2017-05-05T13:29:54.838Z,23.58
2017-05-05T13:33:57.462Z,23.71
2017-05-05T13:34:38.950Z,23.7
2017-05-05T13:35:19.354Z,23.73
2017-05-05T13:36:07.423Z,23.69
2017-05-05T13:36:47.816Z,23.66
2017-05-05T13:37:28.403Z,23.45
2017-05-05T13:38:11.480Z,23.42
2017-05-05T13:38:52.684Z,23.32
2017-05-05T13:39:33.830Z,23.33
2017-05-05T13:40:14.426Z,23.29
2017-05-05T13:40:56.896Z,23.42
2017-05-05T13:41:38.086Z,23.56
2017-05-05T13:42:18.557Z,23.64
2017-05-05T13:42:59.335Z,23.58
2017-05-05T13:43:39.903Z,23.64
2017-05-05T13:44:21.945Z,23.64
2017-05-05T13:45:02.352Z,23.69
2017-05-05T13:45:43.431Z,23.62
2017-05-05T13:46:24.508Z,23.69
2017-05-05T13:47:05.598Z,23.69
2017-05-05T13:47:45.987Z,23.81
2017-05-05T13:48:27.264Z,23.66
2017-05-05T13:49:09.589Z,23.86
2017-05-05T13:49:49.976Z,23.85
2017-05-05T13:50:30.411Z,23.84
2017-05-05T13:51:10.865Z,23.91
2017-05-05T13:51:52.917Z,23.82
2017-05-05T13:52:33.408Z,23.88
2017-05-05T13:53:14.421Z,23.85
2017-05-05T13:53:56.351Z,23.67
2017-05-05T13:54:36.761Z,23.69